Estación Meteorológica Peña el Pijo (Robertgarden) [ 06/24/18 10:45:05 CEST ]

Fecha Hora Presion(HPa) Temp (°C) Humedad % Rocio (°C) Viento ( m/s) Direccion Lluvia 1Hora(mm) Lluvia 24H(mm) LLuvia Total(mm)
2018-Apr-23 01:01:50 1009.100 11.9 55 3.1         203.05
2018-Apr-23 02:01:55 1009.500 11.3 57 3.0         203.05
2018-Apr-23 03:05:07 1009.700 10.9 59 3.2         203.05
2018-Apr-23 04:01:41 1009.200 10.1 62 3.1         203.05
2018-Apr-23 05:01:43 1009.000 9.9 63 3.2         203.05
2018-Apr-23 06:01:47 1008.800 8.9 67 3.1         203.05
2018-Apr-23 07:01:58 1008.900 8.7 67 2.9         203.05
2018-Apr-23 08:01:38 1008.900 8.4 69 3.0         203.05
2018-Apr-23 09:01:43 1009.000 11.8 66 5.6         203.05
2018-Apr-23 10:01:57 1009.700 15.4 50 5.1         203.05
2018-Apr-23 11:01:58 1010.400 16.9 46 5.1         203.05
2018-Apr-23 12:01:37 1010.200 20.3 32 3.0         203.05
2018-Apr-23 13:01:46 1010.000 19.4 32 2.2         203.05
2018-Apr-23 14:01:44 1009.100 20.2 35 4.1         203.05
2018-Apr-23 15:01:36 1009.100 21.4 36 5.6         203.05
2018-Apr-23 16:01:39 1008.600 23.4 31 5.3         203.05
2018-Apr-23 17:01:55 1008.200 21.6 32 4.2         203.05
2018-Apr-23 18:01:42 1008.300 21.2 34 4.6         203.05
2018-Apr-23 19:01:42 1007.300 19.6 37 4.4 1.0 SE     203.05
2018-Apr-23 20:01:50 1007.600 19.1 39 4.8         203.05
2018-Apr-23 21:01:41 1008.200 17.8 42 4.7         203.05
2018-Apr-23 22:01:44 1009.300 16.2 48 5.1         203.05
2018-Apr-23 23:01:41 1008.900 15.3 53 5.8         203.05

Temperatura Máxima:23°    Temperatura Mínima:
Presión Máxima:1010.400 Hpa    Presión Mínima:1007.300 Hpa


Volver